sensor_id;sensor_type;location;lat;lon;timestamp;pressure;altitude;pressure_sealevel;temperature
42197;BMP280;27866;48.146;17.098;2022-09-02T00:01:38;99769.03;;;19.41
42197;BMP280;27866;48.146;17.098;2022-09-02T00:05:50;99767.78;;;19.53
42197;BMP280;27866;48.146;17.098;2022-09-02T00:10:01;99767.50;;;19.39
42197;BMP280;27866;48.146;17.098;2022-09-02T00:14:26;99765.59;;;19.41
42197;BMP280;27866;48.146;17.098;2022-09-02T00:18:39;99769.91;;;19.49
42197;BMP280;27866;48.146;17.098;2022-09-02T00:22:51;99763.63;;;19.43
42197;BMP280;27866;48.146;17.098;2022-09-02T00:27:03;99751.16;;;19.44
42197;BMP280;27866;48.146;17.098;2022-09-02T00:31:15;99755.09;;;19.48
42197;BMP280;27866;48.146;17.098;2022-09-02T00:35:28;99754.44;;;19.46
42197;BMP280;27866;48.146;17.098;2022-09-02T00:39:40;99753.94;;;19.43
42197;BMP280;27866;48.146;17.098;2022-09-02T00:44:10;99754.91;;;19.42
42197;BMP280;27866;48.146;17.098;2022-09-02T00:48:22;99745.53;;;19.40
42197;BMP280;27866;48.146;17.098;2022-09-02T00:52:52;99737.16;;;19.36
42197;BMP280;27866;48.146;17.098;2022-09-02T00:57:08;99748.13;;;19.32
42197;BMP280;27866;48.146;17.098;2022-09-02T01:01:21;99739.75;;;19.29
42197;BMP280;27866;48.146;17.098;2022-09-02T01:05:45;99746.50;;;19.39
42197;BMP280;27866;48.146;17.098;2022-09-02T01:09:57;99743.84;;;19.31
42197;BMP280;27866;48.146;17.098;2022-09-02T01:14:09;99742.59;;;19.43
42197;BMP280;27866;48.146;17.098;2022-09-02T01:18:27;99747.50;;;19.38
42197;BMP280;27866;48.146;17.098;2022-09-02T01:22:41;99734.97;;;19.24
42197;BMP280;27866;48.146;17.098;2022-09-02T01:26:56;99748.38;;;19.14
42197;BMP280;27866;48.146;17.098;2022-09-02T01:31:08;99749.31;;;19.05
42197;BMP280;27866;48.146;17.098;2022-09-02T01:35:21;99747.84;;;19.10
42197;BMP280;27866;48.146;17.098;2022-09-02T01:39:32;99750.19;;;19.13
42197;BMP280;27866;48.146;17.098;2022-09-02T01:43:44;99750.34;;;19.12
42197;BMP280;27866;48.146;17.098;2022-09-02T01:47:56;99749.84;;;19.16
42197;BMP280;27866;48.146;17.098;2022-09-02T01:52:08;99745.88;;;19.12
42197;BMP280;27866;48.146;17.098;2022-09-02T01:56:19;99742.19;;;19.22
42197;BMP280;27866;48.146;17.098;2022-09-02T02:00:31;99748.06;;;19.16
42197;BMP280;27866;48.146;17.098;2022-09-02T02:04:42;99745.22;;;19.10
42197;BMP280;27866;48.146;17.098;2022-09-02T02:08:54;99740.94;;;19.01
42197;BMP280;27866;48.146;17.098;2022-09-02T02:13:06;99736.81;;;18.99
42197;BMP280;27866;48.146;17.098;2022-09-02T02:17:18;99747.34;;;19.07
42197;BMP280;27866;48.146;17.098;2022-09-02T02:21:31;99751.50;;;19.17
42197;BMP280;27866;48.146;17.098;2022-09-02T02:25:43;99747.78;;;19.35
42197;BMP280;27866;48.146;17.098;2022-09-02T02:29:55;99748.13;;;19.32
42197;BMP280;27866;48.146;17.098;2022-09-02T02:34:07;99742.47;;;19.19
42197;BMP280;27866;48.146;17.098;2022-09-02T02:38:20;99751.94;;;19.05
42197;BMP280;27866;48.146;17.098;2022-09-02T02:42:33;99758.41;;;18.93
42197;BMP280;27866;48.146;17.098;2022-09-02T02:46:45;99743.03;;;18.98
42197;BMP280;27866;48.146;17.098;2022-09-02T02:50:57;99749.81;;;18.84
42197;BMP280;27866;48.146;17.098;2022-09-02T02:55:11;99751.09;;;18.72
42197;BMP280;27866;48.146;17.098;2022-09-02T02:59:23;99751.78;;;18.74
42197;BMP280;27866;48.146;17.098;2022-09-02T03:03:36;99751.66;;;18.83
42197;BMP280;27866;48.146;17.098;2022-09-02T03:07:49;99744.63;;;18.91
42197;BMP280;27866;48.146;17.098;2022-09-02T03:12:02;99744.38;;;19.02
42197;BMP280;27866;48.146;17.098;2022-09-02T03:16:15;99746.75;;;18.88
42197;BMP280;27866;48.146;17.098;2022-09-02T03:20:30;99746.25;;;18.85
42197;BMP280;27866;48.146;17.098;2022-09-02T03:24:46;99751.50;;;18.85
42197;BMP280;27866;48.146;17.098;2022-09-02T03:28:57;99751.50;;;18.85
42197;BMP280;27866;48.146;17.098;2022-09-02T03:33:10;99745.53;;;18.75
42197;BMP280;27866;48.146;17.098;2022-09-02T03:37:22;99752.28;;;18.77
42197;BMP280;27866;48.146;17.098;2022-09-02T03:41:33;99750.78;;;18.75
42197;BMP280;27866;48.146;17.098;2022-09-02T03:45:45;99754.28;;;18.83
42197;BMP280;27866;48.146;17.098;2022-09-02T03:49:58;99764.28;;;18.87
42197;BMP280;27866;48.146;17.098;2022-09-02T03:54:10;99757.69;;;18.84
42197;BMP280;27866;48.146;17.098;2022-09-02T03:58:23;99754.41;;;18.82
42197;BMP280;27866;48.146;17.098;2022-09-02T04:02:35;99754.13;;;18.85
42197;BMP280;27866;48.146;17.098;2022-09-02T04:06:47;99764.34;;;18.95
42197;BMP280;27866;48.146;17.098;2022-09-02T04:11:05;99758.31;;;19.02
42197;BMP280;27866;48.146;17.098;2022-09-02T04:15:18;99762.13;;;19.08
42197;BMP280;27866;48.146;17.098;2022-09-02T04:19:31;99764.09;;;19.06
42197;BMP280;27866;48.146;17.098;2022-09-02T04:23:42;99764.44;;;19.11
42197;BMP280;27866;48.146;17.098;2022-09-02T04:27:54;99758.72;;;19.15
42197;BMP280;27866;48.146;17.098;2022-09-02T04:32:07;99761.84;;;19.18
42197;BMP280;27866;48.146;17.098;2022-09-02T04:36:19;99771.22;;;19.21
42197;BMP280;27866;48.146;17.098;2022-09-02T04:40:34;99774.66;;;19.21
42197;BMP280;27866;48.146;17.098;2022-09-02T04:44:46;99769.13;;;19.32
42197;BMP280;27866;48.146;17.098;2022-09-02T04:48:58;99772.25;;;19.35
42197;BMP280;27866;48.146;17.098;2022-09-02T04:53:11;99770.13;;;19.39
42197;BMP280;27866;48.146;17.098;2022-09-02T04:57:24;99780.50;;;19.40
42197;BMP280;27866;48.146;17.098;2022-09-02T05:01:36;99773.28;;;19.42
42197;BMP280;27866;48.146;17.098;2022-09-02T05:06:05;99778.72;;;19.41
42197;BMP280;27866;48.146;17.098;2022-09-02T05:10:18;99784.66;;;19.50
42197;BMP280;27866;48.146;17.098;2022-09-02T05:14:31;99788.63;;;19.54
42197;BMP280;27866;48.146;17.098;2022-09-02T05:18:47;99796.88;;;19.67
42197;BMP280;27866;48.146;17.098;2022-09-02T05:22:59;99790.69;;;19.75
42197;BMP280;27866;48.146;17.098;2022-09-02T05:27:11;99775.72;;;19.84
42197;BMP280;27866;48.146;17.098;2022-09-02T05:31:24;99773.94;;;19.92
42197;BMP280;27866;48.146;17.098;2022-09-02T05:35:41;99770.34;;;20.01
42197;BMP280;27866;48.146;17.098;2022-09-02T05:39:54;99768.72;;;20.07
42197;BMP280;27866;48.146;17.098;2022-09-02T05:44:06;99774.34;;;20.20
42197;BMP280;27866;48.146;17.098;2022-09-02T05:48:19;99776.03;;;20.29
42197;BMP280;27866;48.146;17.098;2022-09-02T05:52:50;99768.78;;;20.38
42197;BMP280;27866;48.146;17.098;2022-09-02T05:57:08;99780.13;;;20.39
42197;BMP280;27866;48.146;17.098;2022-09-02T06:01:22;99775.34;;;20.50
42197;BMP280;27866;48.146;17.098;2022-09-02T06:05:34;99773.72;;;20.57
42197;BMP280;27866;48.146;17.098;2022-09-02T06:09:58;99783.72;;;20.69
42197;BMP280;27866;48.146;17.098;2022-09-02T06:14:12;99786.19;;;20.78
42197;BMP280;27866;48.146;17.098;2022-09-02T06:18:28;99783.03;;;20.90
42197;BMP280;27866;48.146;17.098;2022-09-02T06:22:41;99782.09;;;20.99
42197;BMP280;27866;48.146;17.098;2022-09-02T06:26:53;99781.91;;;21.00
42197;BMP280;27866;48.146;17.098;2022-09-02T06:31:15;99772.66;;;21.12
42197;BMP280;27866;48.146;17.098;2022-09-02T06:35:27;99775.22;;;21.35
42197;BMP280;27866;48.146;17.098;2022-09-02T06:39:41;99781.47;;;21.34
42197;BMP280;27866;48.146;17.098;2022-09-02T06:44:03;99776.69;;;21.37
42197;BMP280;27866;48.146;17.098;2022-09-02T06:48:16;99782.34;;;21.27
42197;BMP280;27866;48.146;17.098;2022-09-02T06:52:29;99774.44;;;21.27
42197;BMP280;27866;48.146;17.098;2022-09-02T06:56:43;99778.69;;;21.28
42197;BMP280;27866;48.146;17.098;2022-09-02T07:00:55;99779.38;;;21.22
42197;BMP280;27866;48.146;17.098;2022-09-02T07:05:09;99791.69;;;21.29
42197;BMP280;27866;48.146;17.098;2022-09-02T07:09:24;99786.41;;;21.29
42197;BMP280;27866;48.146;17.098;2022-09-02T07:13:47;99796.25;;;21.43
42197;BMP280;27866;48.146;17.098;2022-09-02T07:18:00;99804.50;;;21.48
42197;BMP280;27866;48.146;17.098;2022-09-02T07:22:18;99801.47;;;21.58
42197;BMP280;27866;48.146;17.098;2022-09-02T07:26:31;99806.72;;;21.66
42197;BMP280;27866;48.146;17.098;2022-09-02T07:30:43;99808.84;;;21.78
42197;BMP280;27866;48.146;17.098;2022-09-02T07:34:59;99791.78;;;21.88
42197;BMP280;27866;48.146;17.098;2022-09-02T07:39:13;99801.47;;;21.95
42197;BMP280;27866;48.146;17.098;2022-09-02T07:43:27;99795.69;;;22.00
42197;BMP280;27866;48.146;17.098;2022-09-02T07:47:40;99795.34;;;22.03
42197;BMP280;27866;48.146;17.098;2022-09-02T07:51:54;99794.75;;;22.15
42197;BMP280;27866;48.146;17.098;2022-09-02T07:56:06;99792.06;;;22.22
42197;BMP280;27866;48.146;17.098;2022-09-02T08:00:19;99797.34;;;22.22
42197;BMP280;27866;48.146;17.098;2022-09-02T08:04:34;99800.63;;;22.24
42197;BMP280;27866;48.146;17.098;2022-09-02T08:08:50;99808.28;;;22.20
42197;BMP280;27866;48.146;17.098;2022-09-02T08:13:03;99795.06;;;22.20
42197;BMP280;27866;48.146;17.098;2022-09-02T08:17:16;99800.34;;;22.20
42197;BMP280;27866;48.146;17.098;2022-09-02T08:21:28;99798.28;;;22.29
42197;BMP280;27866;48.146;17.098;2022-09-02T08:25:39;99799.03;;;22.45
42197;BMP280;27866;48.146;17.098;2022-09-02T08:29:52;99791.50;;;22.56
42197;BMP280;27866;48.146;17.098;2022-09-02T08:34:03;99792.09;;;22.66
42197;BMP280;27866;48.146;17.098;2022-09-02T08:38:15;99794.13;;;23.14
42197;BMP280;27866;48.146;17.098;2022-09-02T08:46:55;99796.19;;;23.04
42197;BMP280;27866;48.146;17.098;2022-09-02T08:51:51;99806.78;;;23.18
42197;BMP280;27866;48.146;17.098;2022-09-02T08:56:08;99798.88;;;23.32
42197;BMP280;27866;48.146;17.098;2022-09-02T09:00:21;99792.75;;;23.32
42197;BMP280;27866;48.146;17.098;2022-09-02T09:05:02;99795.50;;;23.38
42197;BMP280;27866;48.146;17.098;2022-09-02T09:14:27;99793.00;;;23.79
42197;BMP280;27866;48.146;17.098;2022-09-02T09:18:59;99790.19;;;23.66
42197;BMP280;27866;48.146;17.098;2022-09-02T09:23:33;99783.53;;;23.70
42197;BMP280;27866;48.146;17.098;2022-09-02T09:27:46;99784.41;;;24.25
42197;BMP280;27866;48.146;17.098;2022-09-02T09:31:58;99775.19;;;24.55
42197;BMP280;27866;48.146;17.098;2022-09-02T09:36:10;99784.41;;;24.59
42197;BMP280;27866;48.146;17.098;2022-09-02T09:40:30;99781.84;;;24.72
42197;BMP280;27866;48.146;17.098;2022-09-02T09:44:45;99770.50;;;25.04
42197;BMP280;27866;48.146;17.098;2022-09-02T09:48:57;99772.31;;;25.30
42197;BMP280;27866;48.146;17.098;2022-09-02T09:53:30;99765.66;;;25.41
42197;BMP280;27866;48.146;17.098;2022-09-02T09:57:45;99767.19;;;26.07
42197;BMP280;27866;48.146;17.098;2022-09-02T10:01:57;99754.63;;;26.47
42197;BMP280;27866;48.146;17.098;2022-09-02T10:10:35;99756.28;;;27.17
42197;BMP280;27866;48.146;17.098;2022-09-02T10:14:48;99748.91;;;27.31
42197;BMP280;27866;48.146;17.098;2022-09-02T10:34:03;99728.00;;;28.86
42197;BMP280;27866;48.146;17.098;2022-09-02T10:38:41;99733.03;;;29.18
42197;BMP280;27866;48.146;17.098;2022-09-02T10:43:08;99733.16;;;29.64
42197;BMP280;27866;48.146;17.098;2022-09-02T10:47:31;99728.69;;;29.75
42197;BMP280;27866;48.146;17.098;2022-09-02T10:52:04;99721.06;;;30.24
42197;BMP280;27866;48.146;17.098;2022-09-02T10:56:23;99726.53;;;30.69
42197;BMP280;27866;48.146;17.098;2022-09-02T11:00:40;99717.63;;;31.80
42197;BMP280;27866;48.146;17.098;2022-09-02T11:04:59;99712.56;;;32.32
42197;BMP280;27866;48.146;17.098;2022-09-02T11:09:38;99719.19;;;32.73
42197;BMP280;27866;48.146;17.098;2022-09-02T11:19:09;99704.81;;;32.95
42197;BMP280;27866;48.146;17.098;2022-09-02T11:28:35;99687.72;;;32.53
42197;BMP280;27866;48.146;17.098;2022-09-02T11:38:01;99684.47;;;32.83
42197;BMP280;27866;48.146;17.098;2022-09-02T11:46:59;99677.19;;;32.08
42197;BMP280;27866;48.146;17.098;2022-09-02T11:56:17;99671.13;;;31.47
42197;BMP280;27866;48.146;17.098;2022-09-02T12:04:42;99664.59;;;31.93
42197;BMP280;27866;48.146;17.098;2022-09-02T12:13:06;99656.31;;;32.37
42197;BMP280;27866;48.146;17.098;2022-09-02T12:39:53;99637.97;;;31.37
42197;BMP280;27866;48.146;17.098;2022-09-02T12:44:53;99636.47;;;31.79
42197;BMP280;27866;48.146;17.098;2022-09-02T12:54:09;99621.41;;;32.32
42197;BMP280;27866;48.146;17.098;2022-09-02T12:58:21;99614.34;;;33.32
42197;BMP280;27866;48.146;17.098;2022-09-02T13:08:10;99602.44;;;33.90
42197;BMP280;27866;48.146;17.098;2022-09-02T13:31:19;99581.44;;;36.22
42197;BMP280;27866;48.146;17.098;2022-09-02T13:35:37;99582.00;;;36.53
42197;BMP280;27866;48.146;17.098;2022-09-02T13:39:49;99572.56;;;36.41
42197;BMP280;27866;48.146;17.098;2022-09-02T13:44:12;99565.78;;;36.29
42197;BMP280;27866;48.146;17.098;2022-09-02T13:48:30;99574.31;;;35.73
42197;BMP280;27866;48.146;17.098;2022-09-02T13:52:45;99566.31;;;35.13
42197;BMP280;27866;48.146;17.098;2022-09-02T13:57:04;99566.19;;;34.54
42197;BMP280;27866;48.146;17.098;2022-09-02T14:01:34;99564.09;;;34.61
42197;BMP280;27866;48.146;17.098;2022-09-02T14:05:50;99569.47;;;34.61
42197;BMP280;27866;48.146;17.098;2022-09-02T14:10:07;99566.25;;;35.73
42197;BMP280;27866;48.146;17.098;2022-09-02T14:14:22;99555.03;;;35.26
42197;BMP280;27866;48.146;17.098;2022-09-02T14:18:35;99566.47;;;35.47
42197;BMP280;27866;48.146;17.098;2022-09-02T14:22:54;99565.25;;;36.12
42197;BMP280;27866;48.146;17.098;2022-09-02T14:27:17;99561.06;;;38.52
42197;BMP280;27866;48.146;17.098;2022-09-02T14:31:29;99555.75;;;39.16
42197;BMP280;27866;48.146;17.098;2022-09-02T14:36:04;99556.28;;;39.40
42197;BMP280;27866;48.146;17.098;2022-09-02T14:40:17;99553.47;;;39.68
42197;BMP280;27866;48.146;17.098;2022-09-02T14:44:47;99546.78;;;39.96
42197;BMP280;27866;48.146;17.098;2022-09-02T14:49:06;99541.66;;;39.59
42197;BMP280;27866;48.146;17.098;2022-09-02T14:53:20;99535.38;;;39.63
42197;BMP280;27866;48.146;17.098;2022-09-02T14:57:34;99537.59;;;39.16
42197;BMP280;27866;48.146;17.098;2022-09-02T15:01:51;99538.16;;;38.95
42197;BMP280;27866;48.146;17.098;2022-09-02T15:06:03;99539.63;;;38.83
42197;BMP280;27866;48.146;17.098;2022-09-02T15:10:15;99547.69;;;38.33
42197;BMP280;27866;48.146;17.098;2022-09-02T15:14:26;99527.38;;;38.03
42197;BMP280;27866;48.146;17.098;2022-09-02T15:18:38;99525.78;;;37.92
42197;BMP280;27866;48.146;17.098;2022-09-02T15:22:49;99530.72;;;37.85
42197;BMP280;27866;48.146;17.098;2022-09-02T15:27:04;99528.75;;;37.49
42197;BMP280;27866;48.146;17.098;2022-09-02T15:31:15;99529.09;;;36.57
42197;BMP280;27866;48.146;17.098;2022-09-02T15:35:27;99528.63;;;35.23
42197;BMP280;27866;48.146;17.098;2022-09-02T15:39:38;99529.81;;;34.11
42197;BMP280;27866;48.146;17.098;2022-09-02T15:43:50;99532.53;;;32.77
42197;BMP280;27866;48.146;17.098;2022-09-02T15:48:02;99527.22;;;31.54
42197;BMP280;27866;48.146;17.098;2022-09-02T15:52:13;99544.53;;;30.20
42197;BMP280;27866;48.146;17.098;2022-09-02T15:56:27;99544.00;;;29.04
42197;BMP280;27866;48.146;17.098;2022-09-02T16:00:39;99545.06;;;27.97
42197;BMP280;27866;48.146;17.098;2022-09-02T16:04:50;99541.13;;;27.52
42197;BMP280;27866;48.146;17.098;2022-09-02T16:09:03;99539.56;;;26.96
42197;BMP280;27866;48.146;17.098;2022-09-02T16:13:14;99537.19;;;26.69
42197;BMP280;27866;48.146;17.098;2022-09-02T16:17:26;99533.56;;;26.51
42197;BMP280;27866;48.146;17.098;2022-09-02T16:21:37;99536.47;;;26.18
42197;BMP280;27866;48.146;17.098;2022-09-02T16:26:08;99539.31;;;25.98
42197;BMP280;27866;48.146;17.098;2022-09-02T16:30:20;99537.28;;;25.75
42197;BMP280;27866;48.146;17.098;2022-09-02T16:34:31;99542.13;;;25.59
42197;BMP280;27866;48.146;17.098;2022-09-02T16:38:43;99538.03;;;25.44
42197;BMP280;27866;48.146;17.098;2022-09-02T16:42:54;99538.81;;;25.26
42197;BMP280;27866;48.146;17.098;2022-09-02T16:47:05;99534.88;;;25.09
42197;BMP280;27866;48.146;17.098;2022-09-02T16:51:17;99534.75;;;24.84
42197;BMP280;27866;48.146;17.098;2022-09-02T16:55:28;99532.03;;;24.71
42197;BMP280;27866;48.146;17.098;2022-09-02T16:59:41;99533.19;;;24.56
42197;BMP280;27866;48.146;17.098;2022-09-02T17:03:52;99529.78;;;24.36
42197;BMP280;27866;48.146;17.098;2022-09-02T17:08:05;99535.56;;;24.12
42197;BMP280;27866;48.146;17.098;2022-09-02T17:12:16;99538.34;;;23.84
42197;BMP280;27866;48.146;17.098;2022-09-02T17:16:35;99544.16;;;23.53
42197;BMP280;27866;48.146;17.098;2022-09-02T17:20:47;99538.22;;;23.31
42197;BMP280;27866;48.146;17.098;2022-09-02T17:24:59;99541.69;;;23.11
42197;BMP280;27866;48.146;17.098;2022-09-02T17:29:16;99532.03;;;22.90
42197;BMP280;27866;48.146;17.098;2022-09-02T17:33:28;99542.16;;;22.73
42197;BMP280;27866;48.146;17.098;2022-09-02T17:37:39;99538.09;;;22.56
42197;BMP280;27866;48.146;17.098;2022-09-02T17:41:51;99531.19;;;22.41
42197;BMP280;27866;48.146;17.098;2022-09-02T17:46:08;99549.47;;;22.29
42197;BMP280;27866;48.146;17.098;2022-09-02T17:50:19;99554.91;;;22.13
42197;BMP280;27866;48.146;17.098;2022-09-02T17:54:31;99555.50;;;22.01
42197;BMP280;27866;48.146;17.098;2022-09-02T18:12:55;99550.66;;;21.55
42197;BMP280;27866;48.146;17.098;2022-09-02T18:17:33;99562.59;;;21.43
42197;BMP280;27866;48.146;17.098;2022-09-02T18:26:58;99559.31;;;21.19
42197;BMP280;27866;48.146;17.098;2022-09-02T18:40:28;99562.06;;;20.96
42197;BMP280;27866;48.146;17.098;2022-09-02T18:49:17;99565.53;;;20.89
42197;BMP280;27866;48.146;17.098;2022-09-02T18:53:35;99564.25;;;20.85
42197;BMP280;27866;48.146;17.098;2022-09-02T18:57:57;99576.75;;;20.83
42197;BMP280;27866;48.146;17.098;2022-09-02T19:06:41;99572.66;;;20.81
42197;BMP280;27866;48.146;17.098;2022-09-02T19:11:05;99569.84;;;20.82
42197;BMP280;27866;48.146;17.098;2022-09-02T19:15:18;99572.19;;;20.77
42197;BMP280;27866;48.146;17.098;2022-09-02T19:19:30;99565.03;;;20.86
42197;BMP280;27866;48.146;17.098;2022-09-02T19:23:45;99575.94;;;20.83
42197;BMP280;27866;48.146;17.098;2022-09-02T19:27:58;99574.13;;;20.83
42197;BMP280;27866;48.146;17.098;2022-09-02T19:32:13;99567.75;;;20.78
42197;BMP280;27866;48.146;17.098;2022-09-02T19:36:27;99579.91;;;20.79
42197;BMP280;27866;48.146;17.098;2022-09-02T19:40:40;99573.97;;;20.77
42197;BMP280;27866;48.146;17.098;2022-09-02T19:44:51;99573.84;;;20.71
42197;BMP280;27866;48.146;17.098;2022-09-02T19:49:03;99577.16;;;20.65
42197;BMP280;27866;48.146;17.098;2022-09-02T19:53:24;99580.44;;;20.67
42197;BMP280;27866;48.146;17.098;2022-09-02T19:57:40;99584.38;;;20.63
42197;BMP280;27866;48.146;17.098;2022-09-02T20:01:52;99589.06;;;20.53
42197;BMP280;27866;48.146;17.098;2022-09-02T20:06:03;99592.47;;;20.54
42197;BMP280;27866;48.146;17.098;2022-09-02T20:10:16;99599.59;;;20.53
42197;BMP280;27866;48.146;17.098;2022-09-02T20:14:27;99593.13;;;20.56
42197;BMP280;27866;48.146;17.098;2022-09-02T20:18:41;99589.84;;;20.54
42197;BMP280;27866;48.146;17.098;2022-09-02T20:22:55;99591.72;;;20.46
42197;BMP280;27866;48.146;17.098;2022-09-02T20:27:27;99590.22;;;20.43
42197;BMP280;27866;48.146;17.098;2022-09-02T20:32:34;99594.34;;;20.38
42197;BMP280;27866;48.146;17.098;2022-09-02T20:46:48;99592.41;;;20.32
42197;BMP280;27866;48.146;17.098;2022-09-02T20:51:22;99586.69;;;20.21
42197;BMP280;27866;48.146;17.098;2022-09-02T20:55:46;99591.44;;;20.17
42197;BMP280;27866;48.146;17.098;2022-09-02T21:00:07;99585.66;;;20.14
42197;BMP280;27866;48.146;17.098;2022-09-02T21:04:49;99588.81;;;20.10
42197;BMP280;27866;48.146;17.098;2022-09-02T21:13:59;99580.41;;;20.06
42197;BMP280;27866;48.146;17.098;2022-09-02T21:22:58;99598.19;;;19.97
42197;BMP280;27866;48.146;17.098;2022-09-02T21:27:21;99595.88;;;19.94
42197;BMP280;27866;48.146;17.098;2022-09-02T21:31:47;99595.56;;;19.89
42197;BMP280;27866;48.146;17.098;2022-09-02T21:36:01;99601.47;;;19.83
42197;BMP280;27866;48.146;17.098;2022-09-02T21:40:19;99601.97;;;19.71
42197;BMP280;27866;48.146;17.098;2022-09-02T21:45:18;99610.00;;;19.54
42197;BMP280;27866;48.146;17.098;2022-09-02T21:49:55;99616.38;;;19.44
42197;BMP280;27866;48.146;17.098;2022-09-02T22:03:55;99600.06;;;19.17
42197;BMP280;27866;48.146;17.098;2022-09-02T22:08:39;99609.25;;;19.14
42197;BMP280;27866;48.146;17.098;2022-09-02T22:12:56;99601.00;;;19.01
42197;BMP280;27866;48.146;17.098;2022-09-02T22:17:36;99596.72;;;18.92
42197;BMP280;27866;48.146;17.098;2022-09-02T22:21:53;99598.00;;;18.88
42197;BMP280;27866;48.146;17.098;2022-09-02T22:26:33;99599.47;;;18.83
42197;BMP280;27866;48.146;17.098;2022-09-02T22:30:59;99607.47;;;18.82
42197;BMP280;27866;48.146;17.098;2022-09-02T22:35:29;99603.22;;;18.81
42197;BMP280;27866;48.146;17.098;2022-09-02T22:39:53;99589.13;;;18.74
42197;BMP280;27866;48.146;17.098;2022-09-02T22:44:35;99595.31;;;18.73
42197;BMP280;27866;48.146;17.098;2022-09-02T22:49:15;99603.34;;;18.71
42197;BMP280;27866;48.146;17.098;2022-09-02T22:53:40;99603.81;;;18.67
42197;BMP280;27866;48.146;17.098;2022-09-02T23:03:15;99594.56;;;18.56
42197;BMP280;27866;48.146;17.098;2022-09-02T23:07:29;99588.97;;;18.51
42197;BMP280;27866;48.146;17.098;2022-09-02T23:29:54;99596.75;;;18.35
42197;BMP280;27866;48.146;17.098;2022-09-02T23:43:16;99589.34;;;18.31
42197;BMP280;27866;48.146;17.098;2022-09-02T23:47:49;99587.34;;;18.25
